createdAt,value
2023-05-23T00:00:38.848Z,19.91
2023-05-23T00:01:38.821Z,19.97
2023-05-23T00:02:38.855Z,19.95
2023-05-23T00:03:38.787Z,19.90
2023-05-23T00:04:38.646Z,19.91
2023-05-23T00:05:38.692Z,19.95
2023-05-23T00:06:38.551Z,19.90
2023-05-23T00:07:38.505Z,19.87
2023-05-23T00:08:38.451Z,19.93
2023-05-23T00:09:38.401Z,19.90
2023-05-23T00:10:38.358Z,19.91
2023-05-23T00:11:38.296Z,19.88
2023-05-23T00:12:38.249Z,19.91
2023-05-23T00:13:38.200Z,19.90
2023-05-23T00:14:38.254Z,19.83
2023-05-23T00:15:38.212Z,19.83
2023-05-23T00:16:38.094Z,19.88
2023-05-23T00:17:38.031Z,19.90
2023-05-23T00:18:37.949Z,19.83
2023-05-23T00:19:38.741Z,19.84
2023-05-23T00:20:37.846Z,19.86
2023-05-23T00:21:37.795Z,19.84
2023-05-23T00:22:37.764Z,19.90
2023-05-23T00:23:37.693Z,19.84
2023-05-23T00:24:37.645Z,19.90
2023-05-23T00:25:37.783Z,19.86
2023-05-23T00:26:37.540Z,19.78
2023-05-23T00:27:37.494Z,19.73
2023-05-23T00:28:37.436Z,19.80
2023-05-23T00:29:37.398Z,19.80
2023-05-23T00:30:37.451Z,19.73
2023-05-23T00:31:37.339Z,19.78
2023-05-23T00:32:37.251Z,19.75
2023-05-23T00:33:37.193Z,19.78
2023-05-23T00:34:37.139Z,19.76
2023-05-23T00:35:37.095Z,19.80
2023-05-23T00:36:37.048Z,19.73
2023-05-23T00:37:36.989Z,19.84
2023-05-23T00:38:36.967Z,19.72
2023-05-23T00:39:36.891Z,19.70
2023-05-23T00:40:36.841Z,19.69
2023-05-23T00:41:36.800Z,19.72
2023-05-23T00:42:36.739Z,19.70
2023-05-23T00:43:36.692Z,19.78
2023-05-23T00:44:36.691Z,19.70
2023-05-23T00:45:36.724Z,19.69
2023-05-23T00:46:36.716Z,19.70
2023-05-23T00:47:36.577Z,19.70
2023-05-23T00:48:36.432Z,19.69
2023-05-23T00:49:36.392Z,19.69
2023-05-23T00:50:36.332Z,19.70
2023-05-23T00:51:36.347Z,19.76
2023-05-23T00:52:36.247Z,19.70
2023-05-23T00:53:36.200Z,19.69
2023-05-23T00:54:36.138Z,19.73
2023-05-23T00:55:36.085Z,19.69
2023-05-23T00:56:36.033Z,19.68
2023-05-23T00:57:35.985Z,19.68
2023-05-23T00:58:35.934Z,19.68
2023-05-23T00:59:35.889Z,19.68
2023-05-23T01:00:35.863Z,19.70
2023-05-23T01:01:35.807Z,19.66
2023-05-23T01:02:36.010Z,19.53
2023-05-23T01:03:35.772Z,19.61
2023-05-23T01:04:35.625Z,19.66
2023-05-23T01:05:35.574Z,19.60
2023-05-23T01:06:35.531Z,19.53
2023-05-23T01:07:35.480Z,19.60
2023-05-23T01:08:38.208Z,19.51
2023-05-23T01:09:37.220Z,19.57
2023-05-23T01:10:35.319Z,19.58
2023-05-23T01:11:38.218Z,19.57
2023-05-23T01:12:35.218Z,19.58
2023-05-23T01:13:37.711Z,19.60
2023-05-23T01:14:37.711Z,19.57
2023-05-23T01:15:35.073Z,19.54
2023-05-23T01:16:35.071Z,19.53
2023-05-23T01:17:34.990Z,19.50
2023-05-23T01:18:35.023Z,19.53
2023-05-23T01:19:34.871Z,19.55
2023-05-23T01:20:34.829Z,19.51
2023-05-23T01:21:34.766Z,19.54
2023-05-23T01:22:34.711Z,19.48
2023-05-23T01:23:34.660Z,19.50
2023-05-23T01:24:34.612Z,19.48
2023-05-23T01:25:34.562Z,19.48
2023-05-23T01:26:34.506Z,19.54
2023-05-23T01:27:34.462Z,19.53
2023-05-23T01:28:34.413Z,19.58
2023-05-23T01:29:34.365Z,19.47
2023-05-23T01:30:34.307Z,19.43
2023-05-23T01:31:34.276Z,19.53
2023-05-23T01:32:34.214Z,19.47
2023-05-23T01:33:34.165Z,19.50
2023-05-23T01:34:34.210Z,19.46
2023-05-23T01:35:34.054Z,19.46
2023-05-23T01:36:34.000Z,19.46
2023-05-23T01:37:33.962Z,19.48
2023-05-23T01:38:33.903Z,19.47
2023-05-23T01:39:33.856Z,19.43
2023-05-23T01:40:33.802Z,19.47
2023-05-23T01:41:33.754Z,19.43
2023-05-23T01:42:33.698Z,19.57
2023-05-23T01:43:33.647Z,19.42
2023-05-23T01:44:33.602Z,19.48
2023-05-23T01:45:33.570Z,19.51
2023-05-23T01:46:33.504Z,19.46
2023-05-23T01:47:33.467Z,19.48
2023-05-23T01:48:33.399Z,19.51
2023-05-23T01:49:33.352Z,19.46
2023-05-23T01:50:33.405Z,19.36
2023-05-23T01:51:33.252Z,19.47
2023-05-23T01:52:33.199Z,19.50
2023-05-23T01:53:33.148Z,19.47
2023-05-23T01:54:33.096Z,19.38
2023-05-23T01:55:33.047Z,19.33
2023-05-23T01:56:32.996Z,19.38
2023-05-23T01:57:32.944Z,19.40
2023-05-23T01:58:32.898Z,19.42
2023-05-23T01:59:32.843Z,19.35
2023-05-23T02:00:32.789Z,19.36
2023-05-23T02:01:32.792Z,19.39
2023-05-23T02:02:32.868Z,19.39
2023-05-23T02:03:32.669Z,19.35
2023-05-23T02:04:32.589Z,19.39
2023-05-23T02:05:32.540Z,19.35
2023-05-23T02:06:32.604Z,19.36
2023-05-23T02:07:32.441Z,19.35
2023-05-23T02:08:32.389Z,19.38
2023-05-23T02:09:32.335Z,19.35
2023-05-23T02:10:32.291Z,19.38
2023-05-23T02:11:32.241Z,19.40
2023-05-23T02:12:32.191Z,19.35
2023-05-23T02:13:32.135Z,19.28
2023-05-23T02:14:32.079Z,19.35
2023-05-23T02:15:32.037Z,19.35
2023-05-23T02:16:32.034Z,19.36
2023-05-23T02:17:31.953Z,19.36
2023-05-23T02:18:31.878Z,19.35
2023-05-23T02:19:31.951Z,19.38
2023-05-23T02:20:31.794Z,19.24
2023-05-23T02:21:34.168Z,19.33
2023-05-23T02:22:31.783Z,19.33
2023-05-23T02:23:31.623Z,19.35
2023-05-23T02:24:31.575Z,19.39
2023-05-23T02:25:31.529Z,19.38
2023-05-23T02:26:31.468Z,19.31
2023-05-23T02:27:31.421Z,19.36
2023-05-23T02:28:31.372Z,19.33
2023-05-23T02:29:31.327Z,19.38
2023-05-23T02:30:31.272Z,19.31
2023-05-23T02:31:31.333Z,19.35
2023-05-23T02:32:31.180Z,19.35
2023-05-23T02:33:31.120Z,19.32
2023-05-23T02:34:31.067Z,19.36
2023-05-23T02:35:31.016Z,19.24
2023-05-23T02:36:30.965Z,19.33
2023-05-23T02:37:30.920Z,19.33
2023-05-23T02:38:30.973Z,19.28
2023-05-23T02:39:30.809Z,19.35
2023-05-23T02:40:30.766Z,19.32
2023-05-23T02:41:30.714Z,19.39
2023-05-23T02:42:30.657Z,19.32
2023-05-23T02:43:30.616Z,19.39
2023-05-23T02:44:30.565Z,19.33
2023-05-23T02:45:30.522Z,19.39
2023-05-23T02:46:30.527Z,19.35
2023-05-23T02:47:30.438Z,19.32
2023-05-23T02:48:30.355Z,19.33
2023-05-23T02:49:30.306Z,19.32
2023-05-23T02:50:30.253Z,19.32
2023-05-23T02:51:30.204Z,19.35
2023-05-23T02:52:30.156Z,19.20
2023-05-23T02:53:30.132Z,19.38
2023-05-23T02:54:30.163Z,19.32
2023-05-23T02:55:30.001Z,19.36
2023-05-23T02:56:29.966Z,19.33
2023-05-23T02:57:29.894Z,19.33
2023-05-23T02:58:29.846Z,19.31
2023-05-23T02:59:29.797Z,19.31
2023-05-23T03:00:29.744Z,19.25
2023-05-23T03:01:29.735Z,19.31
2023-05-23T03:02:29.761Z,19.35
2023-05-23T03:03:29.649Z,19.35
2023-05-23T03:04:29.566Z,19.23
2023-05-23T03:05:29.616Z,19.25
2023-05-23T03:06:29.465Z,19.25
2023-05-23T03:07:29.424Z,19.35
2023-05-23T03:08:29.365Z,19.28
2023-05-23T03:09:29.325Z,19.31
2023-05-23T03:10:29.392Z,19.31
2023-05-23T03:11:29.246Z,19.20
2023-05-23T03:12:29.175Z,19.29
2023-05-23T03:13:29.118Z,19.29
2023-05-23T03:14:29.085Z,19.35
2023-05-23T03:15:29.018Z,19.25
2023-05-23T03:16:28.986Z,19.29
2023-05-23T03:17:28.986Z,19.29
2023-05-23T03:18:28.892Z,19.35
2023-05-23T03:19:28.902Z,19.24
2023-05-23T03:20:28.766Z,19.33
2023-05-23T03:21:28.715Z,19.25
2023-05-23T03:22:28.673Z,19.32
2023-05-23T03:23:28.607Z,19.28
2023-05-23T03:24:28.560Z,19.25
2023-05-23T03:25:28.506Z,19.24
2023-05-23T03:26:28.472Z,19.24
2023-05-23T03:27:28.405Z,19.29
2023-05-23T03:28:28.351Z,19.21
2023-05-23T03:29:28.309Z,19.35
2023-05-23T03:30:28.250Z,19.32
2023-05-23T03:31:28.229Z,19.33
2023-05-23T03:32:28.188Z,19.40
2023-05-23T03:33:28.112Z,19.31
2023-05-23T03:34:28.110Z,19.24
2023-05-23T03:35:27.998Z,19.33
2023-05-23T03:36:27.947Z,19.35
2023-05-23T03:37:27.915Z,19.35
2023-05-23T03:38:27.842Z,19.21
2023-05-23T03:39:27.799Z,19.40
2023-05-23T03:40:27.758Z,19.36
2023-05-23T03:41:27.699Z,19.32
2023-05-23T03:42:27.758Z,19.36
2023-05-23T03:43:27.606Z,19.31
2023-05-23T03:44:27.536Z,19.35
2023-05-23T03:45:27.483Z,19.36
2023-05-23T03:46:27.509Z,19.33
2023-05-23T03:47:27.430Z,19.36
2023-05-23T03:48:27.341Z,19.29
2023-05-23T03:49:27.282Z,19.35
2023-05-23T03:50:27.234Z,19.33
2023-05-23T03:51:27.185Z,19.38
2023-05-23T03:52:27.130Z,19.40
2023-05-23T03:53:27.084Z,19.38
2023-05-23T03:54:27.034Z,19.33
2023-05-23T03:55:26.985Z,19.32
2023-05-23T03:56:26.931Z,19.38
2023-05-23T03:57:26.874Z,19.39
2023-05-23T03:58:26.936Z,19.36
2023-05-23T03:59:26.783Z,19.39
2023-05-23T04:00:26.719Z,19.29
2023-05-23T04:01:26.671Z,19.32
2023-05-23T04:02:26.694Z,19.29
2023-05-23T04:03:26.736Z,19.32
2023-05-23T04:04:26.609Z,19.38
2023-05-23T04:05:26.473Z,19.38
2023-05-23T04:06:26.427Z,19.33
2023-05-23T04:07:26.372Z,19.31
2023-05-23T04:08:26.328Z,19.38
2023-05-23T04:09:26.281Z,19.31
2023-05-23T04:10:26.218Z,19.29
2023-05-23T04:11:26.174Z,19.28
2023-05-23T04:12:26.114Z,19.32
2023-05-23T04:13:26.059Z,19.38
2023-05-23T04:14:26.234Z,19.35
2023-05-23T04:15:25.952Z,19.39
2023-05-23T04:16:25.972Z,19.36
2023-05-23T04:17:25.909Z,19.31
2023-05-23T04:18:25.802Z,19.38
2023-05-23T04:19:25.792Z,19.39
2023-05-23T04:20:25.704Z,19.36
2023-05-23T04:21:25.653Z,19.31
2023-05-23T04:22:25.609Z,19.31
2023-05-23T04:23:25.539Z,19.31
2023-05-23T04:24:25.491Z,19.31
2023-05-23T04:25:25.419Z,19.38
2023-05-23T04:26:25.364Z,19.31
2023-05-23T04:27:25.316Z,19.32
2023-05-23T04:28:25.265Z,19.36
2023-05-23T04:29:25.211Z,19.35
2023-05-23T04:30:25.171Z,19.38
2023-05-23T04:31:25.134Z,19.36
2023-05-23T04:32:25.188Z,19.35
2023-05-23T04:33:25.004Z,19.33
2023-05-23T04:34:24.959Z,19.32
2023-05-23T04:35:24.907Z,19.32
2023-05-23T04:36:24.855Z,19.33
2023-05-23T04:37:24.807Z,19.38
2023-05-23T04:38:24.751Z,19.36
2023-05-23T04:39:24.696Z,19.32
2023-05-23T04:40:24.651Z,19.38
2023-05-23T04:41:24.700Z,19.31
2023-05-23T04:42:24.800Z,19.28
2023-05-23T04:43:24.505Z,19.35
2023-05-23T04:44:24.459Z,19.35
2023-05-23T04:45:24.401Z,19.35
2023-05-23T04:46:24.464Z,19.31
2023-05-23T04:47:24.320Z,19.38
2023-05-23T04:48:24.265Z,19.33
2023-05-23T04:49:24.188Z,19.32
2023-05-23T04:50:24.146Z,19.32
2023-05-23T04:51:24.093Z,19.35
2023-05-23T04:52:24.101Z,19.38
2023-05-23T04:53:23.990Z,19.36
2023-05-23T04:54:23.942Z,19.39
2023-05-23T04:55:23.887Z,19.32
2023-05-23T04:56:23.842Z,19.33
2023-05-23T04:57:23.786Z,19.35
2023-05-23T04:58:23.740Z,19.28
2023-05-23T04:59:23.680Z,19.29
2023-05-23T05:00:23.638Z,19.31
2023-05-23T05:01:24.588Z,19.31
2023-05-23T05:02:23.656Z,19.35
2023-05-23T05:03:23.480Z,19.35
2023-05-23T05:04:23.661Z,19.38
2023-05-23T05:05:23.374Z,19.32
2023-05-23T05:06:23.328Z,19.33
2023-05-23T05:07:23.280Z,19.38
2023-05-23T05:08:23.223Z,19.32
2023-05-23T05:09:23.179Z,19.33
2023-05-23T05:10:23.122Z,19.32
2023-05-23T05:11:23.078Z,19.38
2023-05-23T05:12:23.031Z,19.36
2023-05-23T05:13:22.968Z,19.35
2023-05-23T05:14:22.919Z,19.35
2023-05-23T05:15:22.865Z,19.36
2023-05-23T05:16:22.846Z,19.33
2023-05-23T05:17:22.840Z,19.36
2023-05-23T05:18:22.821Z,19.33
2023-05-23T05:19:22.701Z,19.32
2023-05-23T05:20:22.612Z,19.32
2023-05-23T05:21:22.580Z,19.35
2023-05-23T05:22:22.515Z,19.35
2023-05-23T05:23:22.457Z,19.35
2023-05-23T05:24:22.415Z,19.38
2023-05-23T05:25:22.361Z,19.38
2023-05-23T05:26:22.308Z,19.38
2023-05-23T05:27:22.254Z,19.39
2023-05-23T05:28:22.203Z,19.32
2023-05-23T05:29:22.174Z,19.36
2023-05-23T05:30:22.107Z,19.38
2023-05-23T05:31:22.118Z,19.38
2023-05-23T05:32:22.033Z,19.35
2023-05-23T05:33:21.956Z,19.36
2023-05-23T05:34:22.010Z,19.38
2023-05-23T05:35:21.855Z,19.35
2023-05-23T05:36:21.798Z,19.38
2023-05-23T05:37:21.748Z,19.29
2023-05-23T05:38:21.702Z,19.38
2023-05-23T05:39:21.645Z,19.35
2023-05-23T05:40:21.597Z,19.33
2023-05-23T05:41:21.550Z,19.39
2023-05-23T05:42:21.494Z,19.35
2023-05-23T05:43:21.448Z,19.35
2023-05-23T05:44:21.400Z,19.38
2023-05-23T05:45:21.348Z,19.20
2023-05-23T05:46:21.406Z,19.38
2023-05-23T05:47:21.235Z,19.35
2023-05-23T05:48:21.186Z,19.36
2023-05-23T05:49:21.138Z,19.36
2023-05-23T05:50:21.192Z,19.38
2023-05-23T05:51:21.033Z,19.33
2023-05-23T05:52:20.988Z,19.35
2023-05-23T05:53:20.933Z,19.36
2023-05-23T05:54:20.891Z,19.39
2023-05-23T05:55:20.840Z,19.40
2023-05-23T05:56:20.784Z,19.36
2023-05-23T05:57:20.733Z,19.36
2023-05-23T05:58:20.686Z,19.39
2023-05-23T05:59:20.631Z,19.36
2023-05-23T06:00:20.581Z,19.36
2023-05-23T06:01:20.529Z,19.32
2023-05-23T06:02:20.533Z,19.38
2023-05-23T06:03:20.520Z,19.38
2023-05-23T06:04:20.392Z,19.38
2023-05-23T06:05:20.337Z,19.40
2023-05-23T06:06:20.385Z,19.40
2023-05-23T06:07:41.218Z,19.28
2023-05-23T06:08:20.165Z,19.39
2023-05-23T06:09:20.120Z,19.33
2023-05-23T06:10:20.073Z,19.40
2023-05-23T06:11:20.021Z,19.42
2023-05-23T06:12:19.967Z,19.35
2023-05-23T06:13:19.925Z,19.24
2023-05-23T06:14:19.869Z,19.39
2023-05-23T06:15:19.813Z,19.35
2023-05-23T06:16:19.820Z,19.33
2023-05-23T06:17:19.736Z,19.42
2023-05-23T06:18:19.663Z,19.29
2023-05-23T06:19:22.310Z,19.31
2023-05-23T06:20:19.566Z,19.38
2023-05-23T06:21:19.516Z,19.39
2023-05-23T06:22:19.572Z,19.38
2023-05-23T06:23:19.408Z,19.39
2023-05-23T06:24:19.359Z,19.35
2023-05-23T06:25:19.308Z,19.38
2023-05-23T06:26:19.255Z,19.42
2023-05-23T06:27:19.210Z,19.33
2023-05-23T06:28:19.154Z,19.39
2023-05-23T06:29:19.102Z,19.29
2023-05-23T06:30:19.045Z,19.36
2023-05-23T06:31:19.024Z,19.33
2023-05-23T06:32:18.949Z,19.36
2023-05-23T06:33:18.905Z,19.39
2023-05-23T06:34:18.851Z,19.39
2023-05-23T06:35:18.802Z,19.40
2023-05-23T06:36:18.743Z,19.35
2023-05-23T06:37:18.694Z,19.35
2023-05-23T06:38:18.780Z,19.39
2023-05-23T06:39:18.586Z,19.38
2023-05-23T06:40:18.547Z,19.33
2023-05-23T06:41:18.503Z,19.36
2023-05-23T06:42:18.440Z,19.38
2023-05-23T06:43:18.388Z,19.35
2023-05-23T06:44:18.340Z,19.38
2023-05-23T06:45:18.309Z,19.39
2023-05-23T06:46:18.278Z,19.40
2023-05-23T06:47:18.185Z,19.35
2023-05-23T06:48:18.135Z,19.40
2023-05-23T06:49:18.090Z,19.39
2023-05-23T06:50:18.026Z,19.36
2023-05-23T06:51:18.063Z,19.39
2023-05-23T06:52:17.933Z,19.33
2023-05-23T06:53:19.213Z,19.40
2023-05-23T06:54:17.928Z,19.36
2023-05-23T06:55:17.772Z,19.47
2023-05-23T06:56:17.721Z,19.36
2023-05-23T06:57:17.717Z,19.36
2023-05-23T06:58:17.627Z,19.36
2023-05-23T06:59:17.578Z,19.40
2023-05-23T07:00:17.519Z,19.39
2023-05-23T07:01:17.515Z,19.33
2023-05-23T07:02:17.438Z,19.40
2023-05-23T07:03:17.367Z,19.35
2023-05-23T07:04:17.323Z,19.36
2023-05-23T07:05:17.300Z,19.39
2023-05-23T07:06:17.257Z,19.38
2023-05-23T07:07:17.166Z,19.39
2023-05-23T07:08:17.109Z,19.38
2023-05-23T07:09:17.064Z,19.35
2023-05-23T07:10:17.034Z,19.38
2023-05-23T07:11:16.979Z,19.39
2023-05-23T07:12:16.921Z,19.38
2023-05-23T07:13:16.858Z,19.36
2023-05-23T07:14:16.823Z,19.33
2023-05-23T07:15:16.764Z,19.39
2023-05-23T07:16:16.705Z,19.35
2023-05-23T07:17:16.759Z,19.38
2023-05-23T07:18:16.604Z,19.39
2023-05-23T07:19:16.596Z,19.35
2023-05-23T07:20:16.509Z,19.40
2023-05-23T07:21:16.446Z,19.42
2023-05-23T07:22:16.400Z,19.40
2023-05-23T07:23:16.372Z,19.35
2023-05-23T07:24:16.304Z,19.36
2023-05-23T07:25:16.252Z,19.35
2023-05-23T07:26:16.299Z,19.39
2023-05-23T07:27:16.154Z,19.38
2023-05-23T07:28:16.092Z,19.40
2023-05-23T07:29:16.063Z,19.43
2023-05-23T07:30:15.996Z,19.36
2023-05-23T07:31:16.035Z,19.40
2023-05-23T07:32:15.887Z,19.35
2023-05-23T07:33:15.897Z,19.36
2023-05-23T07:34:15.792Z,19.46
2023-05-23T07:35:15.740Z,19.42
2023-05-23T07:36:15.687Z,19.40
2023-05-23T07:37:15.640Z,19.42
2023-05-23T07:38:15.580Z,19.38
2023-05-23T07:39:15.545Z,19.43
2023-05-23T07:40:15.486Z,19.36
2023-05-23T07:41:15.436Z,19.38
2023-05-23T07:42:15.389Z,19.40
2023-05-23T07:43:15.330Z,19.39
2023-05-23T07:44:15.276Z,19.47
2023-05-23T07:45:15.231Z,19.39
2023-05-23T07:46:15.284Z,19.38
2023-05-23T07:47:15.129Z,19.38
2023-05-23T07:48:15.095Z,19.36
2023-05-23T07:49:15.030Z,19.39
2023-05-23T07:50:14.980Z,19.33
2023-05-23T07:51:15.803Z,19.40
2023-05-23T07:52:14.870Z,19.38
2023-05-23T07:53:14.822Z,19.33
2023-05-23T07:54:16.662Z,19.38
2023-05-23T07:55:14.727Z,19.33
2023-05-23T07:56:14.665Z,19.42
2023-05-23T07:57:14.642Z,19.46
2023-05-23T07:58:14.574Z,19.38
2023-05-23T07:59:14.514Z,19.40
2023-05-23T08:00:14.463Z,19.43
2023-05-23T08:01:14.420Z,19.38
2023-05-23T08:02:14.424Z,19.39
2023-05-23T08:03:14.331Z,19.38
2023-05-23T08:04:14.305Z,19.36
2023-05-23T08:05:14.213Z,19.36
2023-05-23T08:06:14.155Z,19.39
2023-05-23T08:07:14.129Z,19.46
2023-05-23T08:08:14.052Z,19.43
2023-05-23T08:09:14.107Z,19.40
2023-05-23T08:10:13.960Z,19.35
2023-05-23T08:11:13.901Z,19.35
2023-05-23T08:12:13.862Z,19.50
2023-05-23T08:13:13.807Z,19.38
2023-05-23T08:14:13.808Z,19.36
2023-05-23T08:15:13.706Z,19.36
2023-05-23T08:16:14.342Z,19.50
2023-05-23T08:17:13.740Z,19.39
2023-05-23T08:18:13.622Z,19.50
2023-05-23T08:19:13.550Z,19.50
2023-05-23T08:20:13.469Z,19.35
2023-05-23T08:21:13.394Z,19.46
2023-05-23T08:22:13.345Z,19.36
2023-05-23T08:23:13.295Z,19.39
2023-05-23T08:24:14.930Z,19.36
2023-05-23T08:25:13.194Z,19.46
2023-05-23T08:26:13.149Z,19.35
2023-05-23T08:27:13.107Z,19.47
2023-05-23T08:28:13.055Z,19.43
2023-05-23T08:29:13.000Z,19.47
2023-05-23T08:30:12.942Z,19.46
2023-05-23T08:31:12.889Z,19.35
2023-05-23T08:32:12.976Z,19.48
2023-05-23T08:33:12.868Z,19.38
2023-05-23T08:34:12.752Z,19.46
2023-05-23T08:35:12.686Z,19.53
2023-05-23T08:36:12.637Z,19.48
2023-05-23T08:37:12.588Z,19.48
2023-05-23T08:38:12.530Z,19.43
2023-05-23T08:39:14.159Z,19.48
2023-05-23T08:40:12.442Z,19.40
2023-05-23T08:41:12.378Z,19.47
2023-05-23T08:42:12.395Z,19.47
2023-05-23T08:43:12.285Z,19.42
2023-05-23T08:44:12.229Z,19.46
2023-05-23T08:45:12.181Z,19.50
2023-05-23T08:46:12.186Z,19.51
2023-05-23T08:47:12.086Z,19.46
2023-05-23T08:48:12.026Z,19.51
2023-05-23T08:49:11.971Z,19.43
2023-05-23T08:50:11.925Z,19.48
2023-05-23T08:51:11.877Z,19.46
2023-05-23T08:52:11.826Z,19.50
2023-05-23T08:53:11.812Z,19.48
2023-05-23T08:54:11.721Z,19.39
2023-05-23T08:55:11.676Z,19.48
2023-05-23T08:56:11.621Z,19.43
2023-05-23T08:57:11.560Z,19.46
2023-05-23T08:58:11.518Z,19.42
2023-05-23T08:59:11.468Z,19.51
2023-05-23T09:00:11.416Z,19.47
2023-05-23T09:01:11.411Z,19.47
2023-05-23T09:02:11.314Z,19.46
2023-05-23T09:03:11.324Z,19.48
2023-05-23T09:04:11.222Z,19.47
2023-05-23T09:05:11.180Z,19.47
2023-05-23T09:06:11.118Z,19.43
2023-05-23T09:07:11.057Z,19.46
2023-05-23T09:08:11.008Z,19.46
2023-05-23T09:09:10.957Z,19.53
2023-05-23T09:10:10.908Z,19.51
2023-05-23T09:11:10.850Z,19.50
2023-05-23T09:12:10.811Z,19.47
2023-05-23T09:13:10.753Z,19.50
2023-05-23T09:14:10.716Z,19.43
2023-05-23T09:15:10.651Z,19.46
2023-05-23T09:16:10.746Z,19.48
2023-05-23T09:17:10.548Z,19.46
2023-05-23T09:18:10.519Z,19.47
2023-05-23T09:19:10.530Z,19.50
2023-05-23T09:20:10.404Z,19.53
2023-05-23T09:21:16.866Z,19.54
2023-05-23T09:22:10.296Z,19.47
2023-05-23T09:23:10.240Z,19.50
2023-05-23T09:24:24.855Z,19.46
2023-05-23T09:25:10.145Z,19.42
2023-05-23T09:26:10.088Z,19.43
2023-05-23T09:27:10.037Z,19.46
2023-05-23T09:28:09.992Z,19.50
2023-05-23T09:29:09.934Z,19.46
2023-05-23T09:30:09.900Z,19.50
2023-05-23T09:31:09.867Z,19.48
2023-05-23T09:32:09.794Z,19.51
2023-05-23T09:33:09.777Z,19.48
2023-05-23T09:34:09.714Z,19.46
2023-05-23T09:35:09.625Z,19.53
2023-05-23T09:36:09.586Z,19.48
2023-05-23T09:37:09.539Z,19.53
2023-05-23T09:38:09.486Z,19.51
2023-05-23T09:39:09.425Z,19.47
2023-05-23T09:40:09.399Z,19.48
2023-05-23T09:41:09.330Z,19.53
2023-05-23T09:42:09.281Z,19.51
2023-05-23T09:43:09.219Z,19.47
2023-05-23T09:44:09.174Z,19.51
2023-05-23T09:45:09.127Z,19.51
2023-05-23T09:46:09.080Z,19.54
2023-05-23T09:47:09.093Z,19.48
2023-05-23T09:48:09.010Z,19.48
2023-05-23T09:49:08.920Z,19.53
2023-05-23T09:50:08.884Z,19.50
2023-05-23T09:51:08.814Z,19.42
2023-05-23T09:52:08.768Z,19.51
2023-05-23T09:53:08.719Z,19.48
2023-05-23T09:54:08.673Z,19.48
2023-05-23T09:55:08.614Z,19.53
2023-05-23T09:56:08.566Z,19.48
2023-05-23T09:57:09.593Z,19.51
2023-05-23T09:58:08.464Z,19.51
2023-05-23T09:59:08.422Z,19.54
2023-05-23T10:00:08.361Z,19.47
2023-05-23T10:01:08.332Z,19.53
2023-05-23T10:02:08.261Z,19.51
2023-05-23T10:03:08.371Z,19.53
2023-05-23T10:04:08.181Z,19.51
2023-05-23T10:05:08.110Z,19.47
2023-05-23T10:06:08.065Z,19.50
2023-05-23T10:07:08.002Z,19.48
2023-05-23T10:08:07.950Z,19.57
2023-05-23T10:09:07.904Z,19.48
2023-05-23T10:10:07.859Z,19.51
2023-05-23T10:11:07.798Z,19.53
2023-05-23T10:12:07.748Z,19.50
2023-05-23T10:13:07.697Z,19.51
2023-05-23T10:14:07.646Z,19.53
2023-05-23T10:15:07.621Z,19.53
2023-05-23T10:16:07.548Z,19.48
2023-05-23T10:17:07.508Z,19.50
2023-05-23T10:18:07.493Z,19.47
2023-05-23T10:19:07.462Z,19.53
2023-05-23T10:20:07.347Z,19.51
2023-05-23T10:21:07.293Z,19.54
2023-05-23T10:22:07.302Z,19.48
2023-05-23T10:23:07.202Z,19.54
2023-05-23T10:24:07.135Z,19.55
2023-05-23T10:25:07.089Z,19.53
2023-05-23T10:26:07.034Z,19.53
2023-05-23T10:27:06.980Z,19.51
2023-05-23T10:28:06.946Z,19.48
2023-05-23T10:29:06.904Z,19.50
2023-05-23T10:30:06.836Z,19.50
2023-05-23T10:31:06.848Z,19.53
2023-05-23T10:32:06.754Z,19.60
2023-05-23T10:33:06.709Z,19.50
2023-05-23T10:34:06.628Z,19.48
2023-05-23T10:35:06.573Z,19.51
2023-05-23T10:36:06.572Z,19.58
2023-05-23T10:37:06.501Z,19.54
2023-05-23T10:38:06.439Z,19.54
2023-05-23T10:39:06.374Z,19.53
2023-05-23T10:40:06.320Z,19.54
2023-05-23T10:41:06.271Z,19.60
2023-05-23T10:42:06.224Z,19.51
2023-05-23T10:43:06.164Z,19.54
2023-05-23T10:44:06.120Z,19.54
2023-05-23T10:45:06.074Z,19.53
2023-05-23T10:46:06.117Z,19.57
2023-05-23T10:47:05.985Z,19.55
2023-05-23T10:48:05.979Z,19.53
2023-05-23T10:49:05.859Z,19.55
2023-05-23T10:50:05.813Z,19.57
2023-05-23T10:51:05.763Z,19.51
2023-05-23T10:52:05.713Z,19.55
2023-05-23T10:53:05.683Z,19.58
2023-05-23T10:54:05.617Z,19.61
2023-05-23T10:55:05.557Z,19.58
2023-05-23T10:56:05.507Z,19.57
2023-05-23T10:57:05.455Z,19.57
2023-05-23T10:58:05.421Z,19.58
2023-05-23T10:59:05.353Z,19.55
2023-05-23T11:00:05.301Z,19.54
2023-05-23T11:01:05.252Z,19.54
2023-05-23T11:02:05.247Z,19.55
2023-05-23T11:03:05.224Z,19.54
2023-05-23T11:04:05.195Z,19.48
2023-05-23T11:05:05.048Z,19.55
2023-05-23T11:06:05.000Z,19.57
2023-05-23T11:07:04.942Z,19.54
2023-05-23T11:08:04.895Z,19.60
2023-05-23T11:09:06.973Z,19.51
2023-05-23T11:10:04.804Z,19.54
2023-05-23T11:11:04.747Z,19.54
2023-05-23T11:12:04.712Z,19.51
2023-05-23T11:13:04.651Z,19.57
2023-05-23T11:14:04.597Z,19.53
2023-05-23T11:15:04.543Z,19.60
2023-05-23T11:16:04.509Z,19.57
2023-05-23T11:17:04.434Z,19.50
2023-05-23T11:18:04.431Z,19.55
2023-05-23T11:19:04.368Z,19.51
2023-05-23T11:20:04.291Z,19.54
2023-05-23T11:21:04.233Z,19.57
2023-05-23T11:22:04.195Z,19.54
2023-05-23T11:23:04.129Z,19.50
2023-05-23T11:24:04.082Z,19.55
2023-05-23T11:25:04.030Z,19.58
2023-05-23T11:26:03.986Z,19.51
2023-05-23T11:27:03.946Z,19.51
2023-05-23T11:28:03.900Z,19.55
2023-05-23T11:29:03.824Z,19.57
2023-05-23T11:30:03.821Z,19.58
2023-05-23T11:31:03.726Z,19.55
2023-05-23T11:32:03.758Z,19.51
2023-05-23T11:33:03.661Z,19.54
2023-05-23T11:34:03.594Z,19.54
2023-05-23T11:35:03.535Z,19.54
2023-05-23T11:36:03.480Z,19.54
2023-05-23T11:37:03.420Z,19.60
2023-05-23T11:38:03.376Z,19.47
2023-05-23T11:39:03.329Z,19.51
2023-05-23T11:40:03.276Z,19.55
2023-05-23T11:41:03.225Z,19.57
2023-05-23T11:42:03.193Z,19.57
2023-05-23T11:43:03.118Z,19.57
2023-05-23T11:44:03.071Z,19.55
2023-05-23T11:45:03.027Z,19.54
2023-05-23T11:46:03.008Z,19.53
2023-05-23T11:47:02.938Z,19.61
2023-05-23T11:48:02.912Z,19.48
2023-05-23T11:49:02.818Z,19.53
2023-05-23T11:50:02.767Z,19.57
2023-05-23T11:51:02.714Z,19.57
2023-05-23T11:52:02.665Z,19.53
2023-05-23T11:53:02.615Z,19.54
2023-05-23T11:54:02.567Z,19.48
2023-05-23T11:55:03.890Z,19.57
2023-05-23T11:56:02.495Z,19.54
2023-05-23T11:57:02.437Z,19.51
2023-05-23T11:58:02.382Z,19.57
2023-05-23T11:59:02.302Z,19.63
2023-05-23T12:00:02.288Z,19.53
2023-05-23T12:01:02.206Z,19.57
2023-05-23T12:02:02.159Z,19.55
2023-05-23T12:03:02.226Z,19.51
2023-05-23T12:04:02.135Z,19.48
2023-05-23T12:05:02.091Z,19.65
2023-05-23T12:06:01.964Z,19.54
2023-05-23T12:07:01.917Z,19.66
2023-05-23T12:08:01.859Z,19.61
2023-05-23T12:09:01.820Z,19.66
2023-05-23T12:10:01.747Z,19.65
2023-05-23T12:11:01.715Z,19.61
2023-05-23T12:12:01.645Z,19.65
2023-05-23T12:13:01.590Z,19.69
2023-05-23T12:14:01.557Z,19.63
2023-05-23T12:15:01.487Z,19.66
2023-05-23T12:16:01.494Z,19.63
2023-05-23T12:17:01.403Z,19.61
2023-05-23T12:18:01.749Z,19.68
2023-05-23T12:19:01.378Z,19.66
2023-05-23T12:20:01.245Z,19.68
2023-05-23T12:21:01.194Z,19.66
2023-05-23T12:22:01.133Z,19.69
2023-05-23T12:23:01.112Z,19.70
2023-05-23T12:24:01.034Z,19.73
2023-05-23T12:25:00.975Z,19.66
2023-05-23T12:26:00.942Z,19.75
2023-05-23T12:27:00.892Z,19.72
2023-05-23T12:28:00.833Z,19.69
2023-05-23T12:29:00.780Z,19.69
2023-05-23T12:30:00.789Z,19.78
2023-05-23T12:31:00.688Z,19.72
2023-05-23T12:32:00.622Z,19.68
2023-05-23T12:33:00.611Z,19.70
2023-05-23T12:34:00.523Z,19.72
2023-05-23T12:35:00.475Z,19.69
2023-05-23T12:36:00.423Z,19.68
2023-05-23T12:37:14.699Z,19.66
2023-05-23T12:38:00.320Z,19.69
2023-05-23T12:39:00.275Z,19.72
2023-05-23T12:40:00.279Z,19.70
2023-05-23T12:41:00.178Z,19.73
2023-05-23T12:42:00.153Z,19.79
2023-05-23T12:43:00.080Z,19.69
2023-05-23T12:44:00.019Z,19.78
2023-05-23T12:44:59.985Z,19.78
2023-05-23T12:45:59.921Z,19.78
2023-05-23T12:46:59.885Z,19.73
2023-05-23T12:47:59.850Z,19.79
2023-05-23T12:48:59.761Z,19.78
2023-05-23T12:49:59.712Z,19.75
2023-05-23T12:50:59.672Z,19.73
2023-05-23T12:51:59.628Z,19.76